createdAt,value
2018-03-14T00:00:20.595Z,6.50
2018-03-14T00:00:53.126Z,6.50
2018-03-14T00:01:25.670Z,6.50
2018-03-14T00:01:58.207Z,6.50
2018-03-14T00:02:30.849Z,6.50
2018-03-14T00:03:03.414Z,6.50
2018-03-14T00:03:36.025Z,6.50
2018-03-14T00:04:08.563Z,6.50
2018-03-14T00:04:41.098Z,6.50
2018-03-14T00:05:13.637Z,6.50
2018-03-14T00:05:46.331Z,6.50
2018-03-14T00:06:18.890Z,6.50
2018-03-14T00:06:51.429Z,6.50
2018-03-14T00:07:24.412Z,6.50
2018-03-14T00:07:56.937Z,6.50
2018-03-14T00:08:29.478Z,6.40
2018-03-14T00:09:02.095Z,6.40
2018-03-14T00:09:34.626Z,6.40
2018-03-14T00:10:07.148Z,6.40
2018-03-14T00:10:39.673Z,6.40
2018-03-14T00:11:12.214Z,6.40
2018-03-14T00:11:44.738Z,6.40
2018-03-14T00:12:17.359Z,6.40
2018-03-14T00:12:49.899Z,6.40
2018-03-14T00:13:22.420Z,6.40
2018-03-14T00:13:54.986Z,6.40
2018-03-14T00:14:27.702Z,6.40
2018-03-14T00:15:00.224Z,6.40
2018-03-14T00:15:32.974Z,6.50
2018-03-14T00:16:05.514Z,6.50
2018-03-14T00:16:38.049Z,6.40
2018-03-14T00:17:10.631Z,6.40
2018-03-14T00:17:43.106Z,6.40
2018-03-14T00:18:15.794Z,6.40
2018-03-14T00:18:48.332Z,6.40
2018-03-14T00:19:21.001Z,6.40
2018-03-14T00:19:53.562Z,6.40
2018-03-14T00:20:26.094Z,6.30
2018-03-14T00:20:58.621Z,6.30
2018-03-14T00:21:31.152Z,6.30
2018-03-14T00:22:03.682Z,6.30
2018-03-14T00:22:36.372Z,6.30
2018-03-14T00:23:09.051Z,6.30
2018-03-14T00:23:41.583Z,6.30
2018-03-14T00:24:14.391Z,6.30
2018-03-14T00:24:46.944Z,6.30
2018-03-14T00:25:19.501Z,6.30
2018-03-14T00:25:52.040Z,6.30
2018-03-14T00:26:24.591Z,6.30
2018-03-14T00:26:57.124Z,6.30
2018-03-14T00:27:29.662Z,6.30
2018-03-14T00:28:02.205Z,6.30
2018-03-14T00:28:34.742Z,6.30
2018-03-14T00:29:08.051Z,6.30
2018-03-14T00:29:40.656Z,6.30
2018-03-14T00:30:13.295Z,6.30
2018-03-14T00:30:45.858Z,6.30
2018-03-14T00:31:18.398Z,6.30
2018-03-14T00:31:50.947Z,6.30
2018-03-14T00:32:23.482Z,6.30
2018-03-14T00:32:56.042Z,6.30
2018-03-14T00:33:28.576Z,6.30
2018-03-14T00:34:01.102Z,6.20
2018-03-14T00:34:34.546Z,6.20
2018-03-14T00:35:07.092Z,6.20
2018-03-14T00:35:39.866Z,6.30
2018-03-14T00:36:12.411Z,6.30
2018-03-14T00:36:44.962Z,6.30
2018-03-14T00:37:17.503Z,6.30
2018-03-14T00:37:50.030Z,6.30
2018-03-14T00:38:22.554Z,6.30
2018-03-14T00:38:55.087Z,6.30
2018-03-14T00:39:27.642Z,6.30
2018-03-14T00:40:00.185Z,6.30
2018-03-14T00:40:32.715Z,6.30
2018-03-14T00:41:05.350Z,6.30
2018-03-14T00:41:37.984Z,6.40
2018-03-14T00:42:10.513Z,6.40
2018-03-14T00:42:43.043Z,6.40
2018-03-14T00:43:15.583Z,6.30
2018-03-14T00:43:48.098Z,6.30
2018-03-14T00:44:20.629Z,6.30
2018-03-14T00:44:53.937Z,6.30
2018-03-14T00:45:26.476Z,6.30
2018-03-14T00:45:59.001Z,6.30
2018-03-14T00:46:31.545Z,6.30
2018-03-14T00:47:04.077Z,6.20
2018-03-14T00:47:37.393Z,6.20
2018-03-14T00:48:09.935Z,6.20
2018-03-14T00:48:42.635Z,6.20
2018-03-14T00:49:15.165Z,6.20
2018-03-14T00:49:47.693Z,6.20
2018-03-14T00:50:20.209Z,6.20
2018-03-14T00:50:52.751Z,6.20
2018-03-14T00:51:25.283Z,6.20
2018-03-14T00:51:57.881Z,6.20
2018-03-14T00:52:30.415Z,6.20
2018-03-14T00:53:03.045Z,6.20
2018-03-14T00:53:35.574Z,6.20
2018-03-14T00:54:08.102Z,6.20
2018-03-14T00:54:40.621Z,6.20
2018-03-14T00:55:13.152Z,6.20
2018-03-14T00:55:46.582Z,6.10
2018-03-14T00:56:19.110Z,6.20
2018-03-14T00:56:51.636Z,6.10
2018-03-14T00:57:24.193Z,6.10
2018-03-14T00:57:56.718Z,6.10
2018-03-14T00:58:29.237Z,6.10
2018-03-14T00:59:01.788Z,6.10
2018-03-14T00:59:34.318Z,6.10
2018-03-14T01:00:06.861Z,6.20
2018-03-14T01:00:39.379Z,6.20
2018-03-14T01:01:11.906Z,6.20
2018-03-14T01:01:44.601Z,6.20
2018-03-14T01:02:17.116Z,6.20
2018-03-14T01:02:49.681Z,6.20
2018-03-14T01:03:22.217Z,6.20
2018-03-14T01:03:55.533Z,6.20
2018-03-14T01:04:28.065Z,6.20
2018-03-14T01:05:00.595Z,6.20
2018-03-14T01:05:33.112Z,6.20
2018-03-14T01:06:05.649Z,6.20
2018-03-14T01:06:38.962Z,6.20
2018-03-14T01:07:11.551Z,6.10
2018-03-14T01:07:44.064Z,6.20
2018-03-14T01:08:16.629Z,6.20
2018-03-14T01:08:49.348Z,6.20
2018-03-14T01:09:21.913Z,6.20
2018-03-14T01:09:54.597Z,6.20
2018-03-14T01:10:27.140Z,6.20
2018-03-14T01:10:59.680Z,6.10
2018-03-14T01:11:32.278Z,6.10
2018-03-14T01:12:04.844Z,6.10
2018-03-14T01:12:37.539Z,6.10
2018-03-14T01:13:10.066Z,6.10
2018-03-14T01:13:42.622Z,6.10
2018-03-14T01:14:15.154Z,6.10
2018-03-14T01:14:47.696Z,6.10
2018-03-14T01:15:20.244Z,6.10
2018-03-14T01:15:52.772Z,6.10
2018-03-14T01:16:25.311Z,6.10
2018-03-14T01:16:58.628Z,6.10
2018-03-14T01:17:31.169Z,6.10
2018-03-14T01:18:03.753Z,6.10
2018-03-14T01:18:36.320Z,6.00
2018-03-14T01:19:08.850Z,6.10
2018-03-14T01:19:41.370Z,6.10
2018-03-14T01:20:13.915Z,6.10
2018-03-14T01:20:46.440Z,6.10
2018-03-14T01:21:19.754Z,6.10
2018-03-14T01:21:52.279Z,6.10
2018-03-14T01:22:24.804Z,6.00
2018-03-14T01:22:57.338Z,6.00
2018-03-14T01:23:29.866Z,6.00
2018-03-14T01:24:03.168Z,6.10
2018-03-14T01:24:35.726Z,6.00
2018-03-14T01:25:08.262Z,6.10
2018-03-14T01:25:40.804Z,6.10
2018-03-14T01:26:13.332Z,6.10
2018-03-14T01:26:45.860Z,6.10
2018-03-14T01:27:19.162Z,6.10
2018-03-14T01:27:51.693Z,6.10
2018-03-14T01:28:24.232Z,6.10
2018-03-14T01:28:56.982Z,6.10
2018-03-14T01:29:29.515Z,6.10
2018-03-14T01:30:02.111Z,6.10
2018-03-14T01:30:34.998Z,6.10
2018-03-14T01:31:07.535Z,6.10
2018-03-14T01:31:40.226Z,6.10
2018-03-14T01:32:12.779Z,6.10
2018-03-14T01:32:45.359Z,6.00
2018-03-14T01:33:17.883Z,6.00
2018-03-14T01:33:50.482Z,6.00
2018-03-14T01:34:23.267Z,6.00
2018-03-14T01:34:56.051Z,5.90
2018-03-14T01:35:28.604Z,5.90
2018-03-14T01:36:01.143Z,5.90
2018-03-14T01:36:33.697Z,5.90
2018-03-14T01:37:06.247Z,5.90
2018-03-14T01:37:38.929Z,5.90
2018-03-14T01:38:11.438Z,5.90
2018-03-14T01:38:44.259Z,5.90
2018-03-14T01:39:16.787Z,5.90
2018-03-14T01:39:49.322Z,5.90
2018-03-14T01:40:22.630Z,5.90
2018-03-14T01:40:55.158Z,5.90
2018-03-14T01:41:27.700Z,5.90
2018-03-14T01:42:00.237Z,5.90
2018-03-14T01:42:32.757Z,6.00
2018-03-14T01:43:06.217Z,5.90
2018-03-14T01:43:38.734Z,5.90
2018-03-14T01:44:12.043Z,5.90
2018-03-14T01:44:44.571Z,5.90
2018-03-14T01:45:17.101Z,5.90
2018-03-14T01:45:49.742Z,5.90
2018-03-14T01:46:22.308Z,5.90
2018-03-14T01:46:54.842Z,5.90
2018-03-14T01:47:27.383Z,5.90
2018-03-14T01:48:00.106Z,5.90
2018-03-14T01:48:32.629Z,5.90
2018-03-14T01:49:05.148Z,5.90
2018-03-14T01:49:37.690Z,5.90
2018-03-14T01:50:10.246Z,5.90
2018-03-14T01:50:42.777Z,5.90
2018-03-14T01:51:15.294Z,5.90
2018-03-14T01:51:47.843Z,5.90
2018-03-14T01:52:20.471Z,5.90
2018-03-14T01:53:52.426Z,5.90
2018-03-14T01:54:25.166Z,5.90
2018-03-14T01:54:57.700Z,5.90
2018-03-14T01:55:30.237Z,5.90
2018-03-14T01:56:02.779Z,5.90
2018-03-14T01:56:35.300Z,5.90
2018-03-14T01:57:07.908Z,5.80
2018-03-14T01:57:40.430Z,5.80
2018-03-14T01:58:12.971Z,5.80
2018-03-14T01:58:45.503Z,5.80
2018-03-14T01:59:18.032Z,5.80
2018-03-14T01:59:50.561Z,5.90
2018-03-14T02:00:23.092Z,5.80
2018-03-14T02:00:55.636Z,5.80
2018-03-14T02:01:28.173Z,5.80
2018-03-14T02:02:00.708Z,5.80
2018-03-14T02:02:33.314Z,5.80
2018-03-14T02:03:05.835Z,5.80
2018-03-14T02:03:38.470Z,5.80
2018-03-14T02:04:10.990Z,5.80
2018-03-14T02:04:43.560Z,5.80
2018-03-14T02:05:16.090Z,5.80
2018-03-14T02:05:48.630Z,5.80
2018-03-14T02:06:21.940Z,5.80
2018-03-14T02:06:54.466Z,5.80
2018-03-14T02:07:27.029Z,5.80
2018-03-14T02:07:59.645Z,5.80
2018-03-14T02:08:32.185Z,5.80
2018-03-14T02:09:04.847Z,5.80
2018-03-14T02:09:37.380Z,5.80
2018-03-14T02:10:09.927Z,5.80
2018-03-14T02:10:42.502Z,5.80
2018-03-14T02:11:15.032Z,5.80
2018-03-14T02:11:47.569Z,5.80
2018-03-14T02:12:20.099Z,5.80
2018-03-14T02:12:52.617Z,5.80
2018-03-14T02:13:25.174Z,5.80
2018-03-14T02:13:57.838Z,5.80
2018-03-14T02:14:30.369Z,5.80
2018-03-14T02:15:02.916Z,5.80
2018-03-14T02:15:35.426Z,5.80
2018-03-14T02:16:07.965Z,5.80
2018-03-14T02:16:41.274Z,5.90
2018-03-14T02:17:13.799Z,5.80
2018-03-14T02:17:46.519Z,5.90
2018-03-14T02:18:19.082Z,5.80
2018-03-14T02:18:51.705Z,5.90
2018-03-14T02:19:25.002Z,5.90
2018-03-14T02:19:57.531Z,5.80
2018-03-14T02:20:30.066Z,5.80
2018-03-14T02:21:02.604Z,5.80
2018-03-14T02:21:35.138Z,5.80
2018-03-14T02:22:08.596Z,5.80
2018-03-14T02:22:41.117Z,5.80
2018-03-14T02:23:13.638Z,5.80
2018-03-14T02:23:46.169Z,5.80
2018-03-14T02:24:18.709Z,5.80
2018-03-14T02:24:51.233Z,5.80
2018-03-14T02:25:23.765Z,5.80
2018-03-14T02:25:56.330Z,5.80
2018-03-14T02:26:28.898Z,5.80
2018-03-14T02:27:01.465Z,5.80
2018-03-14T02:27:34.018Z,5.80
2018-03-14T02:28:06.537Z,5.80
2018-03-14T02:28:39.145Z,5.80
2018-03-14T02:29:11.674Z,5.80
2018-03-14T02:29:44.209Z,5.80
2018-03-14T02:30:17.545Z,5.80
2018-03-14T02:30:50.077Z,5.80
2018-03-14T02:31:22.616Z,5.80
2018-03-14T02:31:55.920Z,5.80
2018-03-14T02:32:28.455Z,5.70
2018-03-14T02:33:00.990Z,5.80
2018-03-14T02:33:33.502Z,5.70
2018-03-14T02:34:06.043Z,5.70
2018-03-14T02:34:38.573Z,5.70
2018-03-14T02:35:11.211Z,5.70
2018-03-14T02:35:43.734Z,5.70
2018-03-14T02:36:28.008Z,5.80
2018-03-14T02:37:02.372Z,5.70
2018-03-14T02:37:34.910Z,5.70
2018-03-14T02:38:07.438Z,5.70
2018-03-14T02:38:40.087Z,5.70
2018-03-14T02:39:12.606Z,5.80
2018-03-14T02:39:45.185Z,5.70
2018-03-14T02:40:17.912Z,5.80
2018-03-14T02:40:50.684Z,5.80
2018-03-14T02:41:23.214Z,5.80
2018-03-14T02:41:55.754Z,5.80
2018-03-14T02:42:28.286Z,5.80
2018-03-14T02:43:00.868Z,5.80
2018-03-14T02:43:33.720Z,5.80
2018-03-14T02:44:06.246Z,5.80
2018-03-14T02:44:39.550Z,5.80
2018-03-14T02:45:12.077Z,5.80
2018-03-14T02:45:44.625Z,5.80
2018-03-14T02:46:17.150Z,5.80
2018-03-14T02:46:49.701Z,5.80
2018-03-14T02:47:22.228Z,5.80
2018-03-14T02:47:54.877Z,5.80
2018-03-14T02:48:27.391Z,5.80
2018-03-14T02:49:00.673Z,5.80
2018-03-14T02:49:33.187Z,5.80
2018-03-14T02:50:05.706Z,5.80
2018-03-14T02:50:38.488Z,5.80
2018-03-14T02:51:11.055Z,5.80
2018-03-14T02:51:43.562Z,5.80
2018-03-14T02:52:16.089Z,5.80
2018-03-14T02:52:48.743Z,5.80
2018-03-14T02:53:21.419Z,5.80
2018-03-14T02:53:53.943Z,5.80
2018-03-14T02:54:27.228Z,5.80
2018-03-14T02:54:59.737Z,5.70
2018-03-14T02:55:32.276Z,5.80
2018-03-14T02:56:05.046Z,5.80
2018-03-14T02:56:37.583Z,5.80
2018-03-14T02:57:10.091Z,5.80
2018-03-14T02:57:42.611Z,5.80
2018-03-14T02:58:15.113Z,5.80
2018-03-14T02:58:47.677Z,5.80
2018-03-14T02:59:20.194Z,5.80
2018-03-14T02:59:53.486Z,5.80
2018-03-14T03:00:26.001Z,5.80
2018-03-14T03:00:58.510Z,5.80
2018-03-14T03:01:31.794Z,5.80
2018-03-14T03:02:04.319Z,5.80
2018-03-14T03:02:36.847Z,5.80
2018-03-14T03:03:09.508Z,5.80
2018-03-14T03:03:42.008Z,5.80
2018-03-14T03:04:14.523Z,5.80
2018-03-14T03:04:47.022Z,5.80
2018-03-14T03:05:19.529Z,5.80
2018-03-14T03:05:52.026Z,5.80
2018-03-14T03:06:24.531Z,5.80
2018-03-14T03:06:57.058Z,5.80
2018-03-14T03:07:29.637Z,5.80
2018-03-14T03:08:02.281Z,5.80
2018-03-14T03:08:34.796Z,5.70
2018-03-14T03:09:07.723Z,5.80
2018-03-14T03:09:40.380Z,5.80
2018-03-14T03:10:12.945Z,5.80
2018-03-14T03:10:45.509Z,5.80
2018-03-14T03:11:18.208Z,5.80
2018-03-14T03:11:50.735Z,5.80
2018-03-14T03:12:23.403Z,5.80
2018-03-14T03:12:55.930Z,5.80
2018-03-14T03:13:28.450Z,5.80
2018-03-14T03:14:01.093Z,5.80
2018-03-14T03:14:33.605Z,5.80
2018-03-14T03:15:06.119Z,5.80
2018-03-14T03:15:38.706Z,5.80
2018-03-14T03:16:11.269Z,5.80
2018-03-14T03:16:43.778Z,5.80
2018-03-14T03:17:17.069Z,5.80
2018-03-14T03:17:49.587Z,5.80
2018-03-14T03:18:22.168Z,5.80
2018-03-14T03:18:54.683Z,5.80
2018-03-14T03:19:27.195Z,5.80
2018-03-14T03:19:59.724Z,5.80
2018-03-14T03:20:32.389Z,5.80
2018-03-14T03:21:04.999Z,5.80
2018-03-14T03:21:37.639Z,5.80
2018-03-14T03:22:10.166Z,5.80
2018-03-14T03:22:42.690Z,5.80
2018-03-14T03:23:15.218Z,5.80
2018-03-14T03:23:47.851Z,5.80
2018-03-14T03:24:20.361Z,5.80
2018-03-14T03:24:52.879Z,5.80
2018-03-14T03:25:25.387Z,5.80
2018-03-14T03:25:58.224Z,5.80
2018-03-14T03:26:30.801Z,5.80
2018-03-14T03:27:03.319Z,5.80
2018-03-14T03:27:35.825Z,5.80
2018-03-14T03:28:08.350Z,5.80
2018-03-14T03:28:40.871Z,5.80
2018-03-14T03:29:13.428Z,5.80
2018-03-14T03:29:45.949Z,5.80
2018-03-14T03:30:19.259Z,5.80
2018-03-14T03:30:51.790Z,5.80
2018-03-14T03:31:24.306Z,5.90
2018-03-14T03:31:57.046Z,5.90
2018-03-14T03:32:29.916Z,5.90
2018-03-14T03:33:02.589Z,5.80
2018-03-14T03:33:35.096Z,5.80
2018-03-14T03:34:07.599Z,5.80
2018-03-14T03:34:40.136Z,5.80
2018-03-14T03:35:12.652Z,5.80
2018-03-14T03:35:45.161Z,5.80
2018-03-14T03:36:17.684Z,5.80
2018-03-14T03:36:50.281Z,5.80
2018-03-14T03:37:23.564Z,5.80
2018-03-14T03:37:56.476Z,5.80
2018-03-14T03:38:29.168Z,5.80
2018-03-14T03:39:01.682Z,5.80
2018-03-14T03:39:34.202Z,5.80
2018-03-14T03:40:06.723Z,5.80
2018-03-14T03:40:39.252Z,5.80
2018-03-14T03:41:11.772Z,5.80
2018-03-14T03:41:44.282Z,5.80
2018-03-14T03:42:16.802Z,5.80
2018-03-14T03:42:49.313Z,5.80
2018-03-14T03:43:22.630Z,5.90
2018-03-14T03:43:55.268Z,5.80
2018-03-14T03:44:27.785Z,5.90
2018-03-14T03:45:00.320Z,5.80
2018-03-14T03:45:32.880Z,5.80
2018-03-14T03:46:05.560Z,5.80
2018-03-14T03:46:38.070Z,5.80
2018-03-14T03:47:10.588Z,5.70
2018-03-14T03:47:43.114Z,5.70
2018-03-14T03:48:15.611Z,5.70
2018-03-14T03:48:48.113Z,5.70
2018-03-14T03:49:20.632Z,5.70
2018-03-14T03:49:53.143Z,5.70
2018-03-14T03:50:25.658Z,5.70
2018-03-14T03:50:58.171Z,5.60
2018-03-14T03:51:31.618Z,5.60
2018-03-14T03:52:04.140Z,5.60
2018-03-14T03:52:37.409Z,5.60
2018-03-14T03:53:09.925Z,5.60
2018-03-14T03:53:42.477Z,5.60
2018-03-14T03:54:14.987Z,5.70
2018-03-14T03:54:47.503Z,5.70
2018-03-14T03:55:20.021Z,5.70
2018-03-14T03:55:52.834Z,5.70
2018-03-14T03:56:25.381Z,5.70
2018-03-14T03:56:57.893Z,5.70
2018-03-14T03:57:30.459Z,5.70
2018-03-14T03:58:02.985Z,5.70
2018-03-14T03:58:35.494Z,5.70
2018-03-14T03:59:08.008Z,5.60
2018-03-14T03:59:40.520Z,5.60
2018-03-14T04:00:13.026Z,5.60
2018-03-14T04:00:45.560Z,5.60
2018-03-14T04:01:18.077Z,5.60
2018-03-14T04:01:50.624Z,5.60
2018-03-14T04:02:23.229Z,5.60
2018-03-14T04:02:55.740Z,5.50
2018-03-14T04:03:28.523Z,5.50
2018-03-14T04:04:01.196Z,5.60
2018-03-14T04:04:33.712Z,5.60
2018-03-14T04:05:06.232Z,5.60
2018-03-14T04:05:38.733Z,5.60
2018-03-14T04:06:11.549Z,5.60
2018-03-14T04:06:44.057Z,5.60
2018-03-14T04:07:16.662Z,5.60
2018-03-14T04:07:49.174Z,5.60
2018-03-14T04:08:21.684Z,5.60
2018-03-14T04:08:54.965Z,5.50
2018-03-14T04:09:27.475Z,5.50
2018-03-14T04:10:00.019Z,5.50
2018-03-14T04:10:32.519Z,5.50
2018-03-14T04:11:05.029Z,5.60
2018-03-14T04:11:37.542Z,5.50
2018-03-14T04:12:10.051Z,5.50
2018-03-14T04:12:42.570Z,5.50
2018-03-14T04:13:15.079Z,5.50
2018-03-14T04:13:47.673Z,5.50
2018-03-14T04:14:20.188Z,5.50
2018-03-14T04:14:53.471Z,5.50
2018-03-14T04:15:25.974Z,5.50
2018-03-14T04:15:58.524Z,5.50
2018-03-14T04:16:31.287Z,5.50
2018-03-14T04:17:03.980Z,5.50
2018-03-14T04:17:36.493Z,5.50
2018-03-14T04:18:09.781Z,5.50
2018-03-14T04:18:42.289Z,5.50
2018-03-14T04:19:14.841Z,5.50
2018-03-14T04:19:47.489Z,5.50
2018-03-14T04:20:19.991Z,5.50
2018-03-14T04:20:52.519Z,5.50
2018-03-14T04:21:25.022Z,5.60
2018-03-14T04:21:57.833Z,5.50
2018-03-14T04:22:30.358Z,5.50
2018-03-14T04:23:02.981Z,5.50
2018-03-14T04:23:35.518Z,5.50
2018-03-14T04:24:08.038Z,5.50
2018-03-14T04:24:40.543Z,5.50
2018-03-14T04:25:13.048Z,5.50
2018-03-14T04:25:45.553Z,5.50
2018-03-14T04:26:18.269Z,5.50
2018-03-14T04:26:50.786Z,5.50
2018-03-14T04:27:24.065Z,5.50
2018-03-14T04:27:56.567Z,5.50
2018-03-14T04:28:29.124Z,5.50
2018-03-14T04:29:01.700Z,5.50
2018-03-14T04:29:34.220Z,5.50
2018-03-14T04:30:06.733Z,5.50
2018-03-14T04:30:39.345Z,5.50
2018-03-14T04:31:11.852Z,5.50
2018-03-14T04:31:44.386Z,5.50
2018-03-14T04:32:17.659Z,5.50
2018-03-14T04:32:50.176Z,5.50
2018-03-14T04:33:22.683Z,5.50
2018-03-14T04:33:55.954Z,5.50
2018-03-14T04:34:29.245Z,5.50
2018-03-14T04:35:01.746Z,5.40
2018-03-14T04:35:34.278Z,5.50
2018-03-14T04:36:06.794Z,5.50
2018-03-14T04:36:39.314Z,5.50
2018-03-14T04:37:12.612Z,5.50
2018-03-14T04:37:45.127Z,5.50
2018-03-14T04:38:18.471Z,5.50
2018-03-14T04:38:51.038Z,5.50
2018-03-14T04:39:23.722Z,5.50
2018-03-14T04:39:56.459Z,5.50
2018-03-14T04:40:28.970Z,5.50
2018-03-14T04:41:01.491Z,5.50
2018-03-14T04:41:34.002Z,5.50
2018-03-14T04:42:06.526Z,5.50
2018-03-14T04:42:39.025Z,5.50
2018-03-14T04:43:11.525Z,5.50
2018-03-14T04:43:44.044Z,5.50
2018-03-14T04:44:16.580Z,5.50
2018-03-14T04:44:49.074Z,5.50
2018-03-14T04:45:21.612Z,5.50
2018-03-14T04:45:54.169Z,5.50
2018-03-14T04:46:26.684Z,5.50
2018-03-14T04:46:59.970Z,5.60
2018-03-14T04:47:32.543Z,5.60
2018-03-14T04:48:05.063Z,5.50
2018-03-14T04:48:37.566Z,5.50
2018-03-14T04:49:10.846Z,5.50
2018-03-14T04:49:43.366Z,5.50
2018-03-14T04:50:15.893Z,5.50
2018-03-14T04:50:48.422Z,5.50
2018-03-14T04:51:21.702Z,5.40
2018-03-14T04:51:54.198Z,5.40
2018-03-14T04:52:26.863Z,5.40
2018-03-14T04:52:59.371Z,5.40
2018-03-14T04:53:31.920Z,5.40
2018-03-14T04:54:04.426Z,5.50
2018-03-14T04:54:37.840Z,5.50
2018-03-14T04:55:10.533Z,5.50
2018-03-14T04:55:43.100Z,5.50
2018-03-14T04:56:15.646Z,5.50
2018-03-14T04:56:48.299Z,5.50
2018-03-14T04:57:20.838Z,5.50
2018-03-14T04:57:53.401Z,5.50
2018-03-14T04:58:25.934Z,5.50
2018-03-14T04:58:58.442Z,5.50
2018-03-14T04:59:31.057Z,5.50
2018-03-14T05:00:03.578Z,5.50
2018-03-14T05:00:36.094Z,5.50
2018-03-14T05:01:08.590Z,5.50
2018-03-14T05:01:41.119Z,5.40
2018-03-14T05:02:13.635Z,5.40
2018-03-14T05:02:46.149Z,5.40
2018-03-14T05:03:18.650Z,5.40
2018-03-14T05:03:51.258Z,5.40
2018-03-14T05:04:23.994Z,5.40
2018-03-14T05:04:56.521Z,5.40
2018-03-14T05:05:29.119Z,5.40
2018-03-14T05:06:01.685Z,5.40
2018-03-14T05:06:34.205Z,5.40
2018-03-14T05:07:06.725Z,5.40
2018-03-14T05:07:39.237Z,5.40
2018-03-14T05:08:11.734Z,5.40
2018-03-14T05:08:44.252Z,5.40
2018-03-14T05:09:16.891Z,5.40
2018-03-14T05:09:49.487Z,5.40
2018-03-14T05:10:22.002Z,5.40
2018-03-14T05:10:54.502Z,5.40
2018-03-14T05:11:27.026Z,5.40
2018-03-14T05:11:59.703Z,5.40
2018-03-14T05:12:32.346Z,5.40
2018-03-14T05:13:04.923Z,5.40
2018-03-14T05:13:37.490Z,5.40
2018-03-14T05:14:10.026Z,5.40
2018-03-14T05:14:43.334Z,5.40
2018-03-14T05:15:16.010Z,5.40
2018-03-14T05:15:48.561Z,5.40
2018-03-14T05:16:21.074Z,5.40
2018-03-14T05:16:53.759Z,5.40
2018-03-14T05:17:26.294Z,5.40
2018-03-14T05:17:58.816Z,5.40
2018-03-14T05:18:31.384Z,5.40
2018-03-14T05:19:03.909Z,5.40
2018-03-14T05:19:37.195Z,5.40
2018-03-14T05:20:09.692Z,5.40
2018-03-14T05:20:42.213Z,5.40
2018-03-14T05:21:15.528Z,5.40
2018-03-14T05:21:48.193Z,5.40
2018-03-14T05:22:20.705Z,5.40
2018-03-14T05:22:53.320Z,5.40
2018-03-14T05:23:25.841Z,5.40
2018-03-14T05:23:58.358Z,5.40
2018-03-14T05:24:31.007Z,5.40
2018-03-14T05:25:03.781Z,5.40
2018-03-14T05:25:36.297Z,5.40
2018-03-14T05:26:08.798Z,5.40
2018-03-14T05:26:41.616Z,5.40
2018-03-14T05:27:14.105Z,5.40
2018-03-14T05:27:46.694Z,5.40
2018-03-14T05:28:19.199Z,5.40
2018-03-14T05:28:51.735Z,5.50
2018-03-14T05:29:24.259Z,5.50
2018-03-14T05:29:56.757Z,5.50
2018-03-14T05:30:29.377Z,5.50
2018-03-14T05:31:01.902Z,5.50
2018-03-14T05:31:34.553Z,5.50
2018-03-14T05:32:07.096Z,5.50
2018-03-14T05:32:39.782Z,5.50
2018-03-14T05:33:12.305Z,5.50
2018-03-14T05:33:44.910Z,5.50
2018-03-14T05:34:17.623Z,5.50
2018-03-14T05:34:50.351Z,5.50
2018-03-14T05:35:22.860Z,5.50
2018-03-14T05:35:55.389Z,5.50
2018-03-14T05:36:27.923Z,5.50
2018-03-14T05:37:00.476Z,5.50
2018-03-14T05:37:32.999Z,5.50
2018-03-14T05:38:05.502Z,5.50
2018-03-14T05:38:38.779Z,5.40
2018-03-14T05:39:11.288Z,5.40
2018-03-14T05:39:43.927Z,5.40
2018-03-14T05:40:16.453Z,5.40
2018-03-14T05:40:48.968Z,5.40
2018-03-14T05:41:21.504Z,5.50
2018-03-14T05:41:54.806Z,5.50
2018-03-14T05:42:27.326Z,5.40
2018-03-14T05:43:00.617Z,5.50
2018-03-14T05:43:33.126Z,5.40
2018-03-14T05:44:05.652Z,5.40
2018-03-14T05:44:38.178Z,5.40
2018-03-14T05:45:13.184Z,5.40
2018-03-14T05:45:45.818Z,5.40
2018-03-14T05:46:18.332Z,5.40
2018-03-14T05:46:50.957Z,5.40
2018-03-14T05:47:23.494Z,5.40
2018-03-14T05:47:56.018Z,5.40
2018-03-14T05:48:28.658Z,5.40
2018-03-14T05:49:01.172Z,5.40
2018-03-14T05:49:33.737Z,5.40
2018-03-14T05:50:06.246Z,5.40
2018-03-14T05:50:38.783Z,5.40
2018-03-14T05:51:11.289Z,5.40
2018-03-14T05:51:43.961Z,5.40
2018-03-14T05:52:16.498Z,5.40
2018-03-14T05:52:49.016Z,5.40
2018-03-14T05:53:22.344Z,5.40
2018-03-14T05:53:54.985Z,5.40
2018-03-14T05:54:27.505Z,5.40
2018-03-14T05:55:00.019Z,5.40
2018-03-14T05:55:32.587Z,5.40
2018-03-14T05:56:05.178Z,5.40
2018-03-14T05:56:37.690Z,5.40
2018-03-14T05:57:10.205Z,5.40
2018-03-14T05:57:42.746Z,5.40
2018-03-14T05:58:15.275Z,5.40
2018-03-14T05:58:48.554Z,5.50
2018-03-14T05:59:21.075Z,5.40
2018-03-14T05:59:53.578Z,5.50
2018-03-14T06:00:26.857Z,5.50
2018-03-14T06:00:59.378Z,5.50
2018-03-14T06:01:32.438Z,5.50
2018-03-14T06:02:05.004Z,5.50
2018-03-14T06:02:37.522Z,5.60
2018-03-14T06:03:10.229Z,5.60
2018-03-14T06:03:42.896Z,5.60
2018-03-14T06:04:15.403Z,5.60
2018-03-14T06:04:47.929Z,5.60
2018-03-14T06:05:20.522Z,5.60
2018-03-14T06:05:53.094Z,5.60
2018-03-14T06:06:25.617Z,5.60
2018-03-14T06:06:58.170Z,5.50
2018-03-14T06:07:30.698Z,5.50
2018-03-14T06:08:03.244Z,5.50
2018-03-14T06:08:35.768Z,5.50
2018-03-14T06:09:08.357Z,5.50
2018-03-14T06:09:42.033Z,5.50
2018-03-14T06:10:14.600Z,5.50
2018-03-14T06:10:47.133Z,5.50
2018-03-14T06:11:19.740Z,5.50
2018-03-14T06:11:53.670Z,5.50
2018-03-14T06:12:26.321Z,5.50
2018-03-14T06:12:58.900Z,5.50
2018-03-14T06:13:31.615Z,5.50
2018-03-14T06:14:04.162Z,5.60
2018-03-14T06:14:36.691Z,5.60
2018-03-14T06:15:09.210Z,5.60
2018-03-14T06:15:41.756Z,5.60
2018-03-14T06:16:14.327Z,5.60
2018-03-14T06:16:46.906Z,5.60
2018-03-14T06:17:20.022Z,5.60
2018-03-14T06:17:52.604Z,5.70
2018-03-14T06:18:25.300Z,5.70
2018-03-14T06:18:57.865Z,5.60
2018-03-14T06:19:30.402Z,5.60
2018-03-14T06:20:02.993Z,5.60
2018-03-14T06:20:35.500Z,5.60
2018-03-14T06:21:08.018Z,5.60
2018-03-14T06:21:40.582Z,5.60
2018-03-14T06:22:13.129Z,5.60
2018-03-14T06:22:45.647Z,5.60
2018-03-14T06:23:18.268Z,5.60
2018-03-14T06:23:50.768Z,5.60
2018-03-14T06:24:23.285Z,5.60
2018-03-14T06:24:55.832Z,5.60
2018-03-14T06:25:29.164Z,5.60
2018-03-14T06:26:01.697Z,5.60
2018-03-14T06:26:34.206Z,5.60
2018-03-14T06:27:06.821Z,5.70
2018-03-14T06:27:39.340Z,5.70
2018-03-14T06:28:12.510Z,5.70
2018-03-14T06:28:45.168Z,5.70
2018-03-14T06:29:17.689Z,5.70
2018-03-14T06:29:50.266Z,5.60
2018-03-14T06:30:22.748Z,5.60
2018-03-14T06:30:55.261Z,5.60
2018-03-14T06:31:27.756Z,5.60
2018-03-14T06:32:00.421Z,5.60
2018-03-14T06:32:32.955Z,5.60
2018-03-14T06:33:05.482Z,5.60
2018-03-14T06:33:38.010Z,5.60
2018-03-14T06:34:10.557Z,5.60
2018-03-14T06:34:43.864Z,5.60
2018-03-14T06:35:16.377Z,5.60
2018-03-14T06:35:48.913Z,5.50
2018-03-14T06:36:21.662Z,5.60
2018-03-14T06:36:54.345Z,5.60
2018-03-14T06:37:26.900Z,5.60
2018-03-14T06:37:59.473Z,5.60
2018-03-14T06:38:32.000Z,5.60
2018-03-14T06:39:04.526Z,5.60
2018-03-14T06:39:37.103Z,5.60
2018-03-14T06:40:09.630Z,5.60
2018-03-14T06:40:42.302Z,5.60
2018-03-14T06:41:14.938Z,5.60
2018-03-14T06:41:47.830Z,5.60
2018-03-14T06:42:20.338Z,5.60
2018-03-14T06:42:53.041Z,5.60
2018-03-14T06:43:25.547Z,5.60
2018-03-14T06:43:58.085Z,5.70
2018-03-14T06:44:30.624Z,5.70
2018-03-14T06:45:03.163Z,5.70
2018-03-14T06:45:35.710Z,5.70
2018-03-14T06:46:08.226Z,5.70
2018-03-14T06:46:40.736Z,5.70
2018-03-14T06:47:13.466Z,5.70
2018-03-14T06:47:46.158Z,5.70
2018-03-14T06:48:18.693Z,5.80
2018-03-14T06:48:51.212Z,5.80
2018-03-14T06:49:23.734Z,5.80
2018-03-14T06:49:56.240Z,5.80
2018-03-14T06:50:28.761Z,5.80
2018-03-14T06:51:01.339Z,5.80
2018-03-14T06:51:33.890Z,5.80
2018-03-14T06:52:06.423Z,5.80
2018-03-14T06:52:38.973Z,5.80
2018-03-14T06:53:11.519Z,5.80
2018-03-14T06:53:44.831Z,5.90
2018-03-14T06:54:17.361Z,5.80
2018-03-14T06:54:49.890Z,5.90
2018-03-14T06:55:22.419Z,5.90
2018-03-14T06:55:54.964Z,5.90
2018-03-14T06:56:27.741Z,5.90
2018-03-14T06:57:00.320Z,5.90
2018-03-14T06:57:32.851Z,5.90
2018-03-14T06:58:05.409Z,5.80
2018-03-14T06:58:50.296Z,5.80
2018-03-14T06:59:35.797Z,5.80
2018-03-14T07:00:20.707Z,5.80
2018-03-14T07:01:05.173Z,5.90
2018-03-14T07:01:49.792Z,5.80
2018-03-14T07:02:34.137Z,5.90
2018-03-14T07:03:18.808Z,5.90
2018-03-14T07:04:03.694Z,5.90
2018-03-14T07:04:44.801Z,5.80
2018-03-14T07:05:29.362Z,5.80
2018-03-14T07:06:19.709Z,5.80
2018-03-14T07:06:52.306Z,5.80
2018-03-14T07:07:25.113Z,5.80
2018-03-14T07:07:57.828Z,5.80
2018-03-14T07:08:31.111Z,5.80
2018-03-14T07:09:03.951Z,5.80
2018-03-14T07:09:36.981Z,5.90
2018-03-14T07:10:09.747Z,5.90
2018-03-14T07:10:43.170Z,5.90
2018-03-14T07:11:17.261Z,5.90
2018-03-14T07:11:50.785Z,5.90
2018-03-14T07:12:23.293Z,5.90
2018-03-14T07:12:55.837Z,5.90
2018-03-14T07:13:28.360Z,6.00
2018-03-14T07:14:00.890Z,6.00
2018-03-14T07:14:33.406Z,6.00
2018-03-14T07:15:05.925Z,6.00
2018-03-14T07:15:38.443Z,6.00
2018-03-14T07:16:10.954Z,6.00
2018-03-14T07:16:43.466Z,6.00
2018-03-14T07:17:16.000Z,6.00
2018-03-14T07:17:48.523Z,6.00